sensor_id;sensor_type;location;lat;lon;timestamp;pressure;altitude;pressure_sealevel;temperature;humidity
71043;BME280;58696;52.134;5.500;2024-02-21T00:00:33;102148.88;;;9.08;72.97
71043;BME280;58696;52.134;5.500;2024-02-21T00:03:00;102145.50;;;9.07;72.97
71043;BME280;58696;52.134;5.500;2024-02-21T00:05:32;102128.53;;;9.06;72.99
71043;BME280;58696;52.134;5.500;2024-02-21T00:08:04;102133.13;;;9.03;72.98
71043;BME280;58696;52.134;5.500;2024-02-21T00:10:35;102125.28;;;9.04;72.98
71043;BME280;58696;52.134;5.500;2024-02-21T00:13:02;102116.91;;;9.02;72.97
71043;BME280;58696;52.134;5.500;2024-02-21T00:15:32;102108.41;;;9.02;72.98
71043;BME280;58696;52.134;5.500;2024-02-21T00:18:01;102097.50;;;9.00;72.97
71043;BME280;58696;52.134;5.500;2024-02-21T00:20:28;102098.47;;;8.99;72.97
71043;BME280;58696;52.134;5.500;2024-02-21T00:22:56;102090.22;;;8.95;72.97
71043;BME280;58696;52.134;5.500;2024-02-21T00:25:26;102087.66;;;8.95;72.97
71043;BME280;58696;52.134;5.500;2024-02-21T00:27:55;102097.13;;;8.94;72.97
71043;BME280;58696;52.134;5.500;2024-02-21T00:30:24;102101.28;;;8.95;72.97
71043;BME280;58696;52.134;5.500;2024-02-21T00:32:50;102107.22;;;8.96;72.97
71043;BME280;58696;52.134;5.500;2024-02-21T00:35:19;102096.03;;;8.97;72.97
71043;BME280;58696;52.134;5.500;2024-02-21T00:37:48;102105.34;;;8.98;72.99
71043;BME280;58696;52.134;5.500;2024-02-21T00:40:17;102103.75;;;8.97;72.96
71043;BME280;58696;52.134;5.500;2024-02-21T00:42:48;102096.97;;;8.96;72.97
71043;BME280;58696;52.134;5.500;2024-02-21T00:45:15;102090.09;;;8.96;72.97
71043;BME280;58696;52.134;5.500;2024-02-21T00:47:41;102098.72;;;8.95;72.98
71043;BME280;58696;52.134;5.500;2024-02-21T00:50:10;102088.47;;;8.95;72.98
71043;BME280;58696;52.134;5.500;2024-02-21T00:52:39;102091.84;;;8.96;72.97
71043;BME280;58696;52.134;5.500;2024-02-21T00:55:06;102088.34;;;8.97;72.97
71043;BME280;58696;52.134;5.500;2024-02-21T00:57:35;102090.09;;;8.96;72.97
71043;BME280;58696;52.134;5.500;2024-02-21T01:00:03;102096.97;;;8.96;72.98
71043;BME280;58696;52.134;5.500;2024-02-21T01:02:32;102106.41;;;8.95;72.98
71043;BME280;58696;52.134;5.500;2024-02-21T01:04:59;102105.63;;;8.95;72.97
71043;BME280;58696;52.134;5.500;2024-02-21T01:07:25;102112.34;;;8.96;72.98
71043;BME280;58696;52.134;5.500;2024-02-21T01:09:52;102109.78;;;8.96;72.97
71043;BME280;58696;52.134;5.500;2024-02-21T01:12:22;102108.97;;;8.95;72.98
71043;BME280;58696;52.134;5.500;2024-02-21T01:14:51;102111.53;;;8.95;72.98
71043;BME280;58696;52.134;5.500;2024-02-21T01:17:17;102104.66;;;8.96;72.98
71043;BME280;58696;52.134;5.500;2024-02-21T01:19:46;102101.28;;;8.95;72.98
71043;BME280;58696;52.134;5.500;2024-02-21T01:22:13;102096.97;;;8.96;72.97
71043;BME280;58696;52.134;5.500;2024-02-21T01:24:41;102096.97;;;8.96;72.98
71043;BME280;58696;52.134;5.500;2024-02-21T01:27:10;102097.91;;;8.95;72.97
71043;BME280;58696;52.134;5.500;2024-02-21T01:29:36;102098.59;;;8.97;72.97
71043;BME280;58696;52.134;5.500;2024-02-21T01:32:05;102086.72;;;8.96;72.98
71043;BME280;58696;52.134;5.500;2024-02-21T01:34:34;102080.78;;;8.95;72.97
71043;BME280;58696;52.134;5.500;2024-02-21T01:37:04;102079.97;;;8.95;72.97
71043;BME280;58696;52.134;5.500;2024-02-21T01:39:33;102076.59;;;8.94;72.98
71043;BME280;58696;52.134;5.500;2024-02-21T01:42:00;102073.09;;;8.95;72.98
71043;BME280;58696;52.134;5.500;2024-02-21T01:44:26;102074.84;;;8.95;72.98
71043;BME280;58696;52.134;5.500;2024-02-21T01:46:55;102069.06;;;8.93;72.98
71043;BME280;58696;52.134;5.500;2024-02-21T01:49:24;102058.81;;;8.93;72.98
71043;BME280;58696;52.134;5.500;2024-02-21T01:51:52;102049.34;;;8.93;72.97
71043;BME280;58696;52.134;5.500;2024-02-21T01:54:22;102040.97;;;8.91;72.99
71043;BME280;58696;52.134;5.500;2024-02-21T01:56:49;102040.06;;;8.92;72.98
71043;BME280;58696;52.134;5.500;2024-02-21T01:59:18;102043.53;;;8.91;72.97
71043;BME280;58696;52.134;5.500;2024-02-21T02:01:46;102040.19;;;8.91;72.98
71043;BME280;58696;52.134;5.500;2024-02-21T02:04:13;102040.19;;;8.91;72.97
71043;BME280;58696;52.134;5.500;2024-02-21T02:06:42;102040.19;;;8.91;72.98
71043;BME280;58696;52.134;5.500;2024-02-21T02:09:12;102032.50;;;8.91;72.97
71043;BME280;58696;52.134;5.500;2024-02-21T02:11:39;102032.50;;;8.91;72.97
71043;BME280;58696;52.134;5.500;2024-02-21T02:14:05;102022.38;;;8.89;72.97
71043;BME280;58696;52.134;5.500;2024-02-21T02:16:34;102017.41;;;8.88;72.98
71043;BME280;58696;52.134;5.500;2024-02-21T02:19:03;102014.03;;;8.87;72.97
71043;BME280;58696;52.134;5.500;2024-02-21T02:21:34;102006.47;;;8.86;72.96
71043;BME280;58696;52.134;5.500;2024-02-21T02:24:06;102000.41;;;8.87;72.98
71043;BME280;58696;52.134;5.500;2024-02-21T02:26:33;102004.59;;;8.88;72.98
71043;BME280;58696;52.134;5.500;2024-02-21T02:29:01;102007.28;;;8.86;72.97
71043;BME280;58696;52.134;5.500;2024-02-21T02:31:31;102002.28;;;8.85;72.97
71043;BME280;58696;52.134;5.500;2024-02-21T02:33:57;102007.41;;;8.85;72.96
71043;BME280;58696;52.134;5.500;2024-02-21T02:36:24;102004.06;;;8.84;72.97
71043;BME280;58696;52.134;5.500;2024-02-21T02:38:53;102001.50;;;8.84;72.97
71043;BME280;58696;52.134;5.500;2024-02-21T02:41:24;101997.97;;;8.85;72.97
71043;BME280;58696;52.134;5.500;2024-02-21T02:43:53;101995.41;;;8.85;72.99
71043;BME280;58696;52.134;5.500;2024-02-21T02:46:25;101993.66;;;8.86;72.97
71043;BME280;58696;52.134;5.500;2024-02-21T02:48:51;102001.34;;;8.86;72.96
71043;BME280;58696;52.134;5.500;2024-02-21T02:51:23;101999.59;;;8.86;72.98
71043;BME280;58696;52.134;5.500;2024-02-21T02:53:49;101996.22;;;8.86;72.97
71043;BME280;58696;52.134;5.500;2024-02-21T02:56:16;101991.09;;;8.86;72.97
71043;BME280;58696;52.134;5.500;2024-02-21T02:58:43;101988.53;;;8.86;72.97
71043;BME280;58696;52.134;5.500;2024-02-21T03:01:10;101976.81;;;8.83;72.97
71043;BME280;58696;52.134;5.500;2024-02-21T03:03:40;101974.25;;;8.83;72.97
71043;BME280;58696;52.134;5.500;2024-02-21T03:06:07;101970.88;;;8.83;72.98
71043;BME280;58696;52.134;5.500;2024-02-21T03:08:36;101973.44;;;8.83;72.98
71043;BME280;58696;52.134;5.500;2024-02-21T03:11:05;101976.81;;;8.83;72.96
71043;BME280;58696;52.134;5.500;2024-02-21T03:13:31;101969.28;;;8.82;72.96
71043;BME280;58696;52.134;5.500;2024-02-21T03:15:58;101964.94;;;8.82;72.97
71043;BME280;58696;52.134;5.500;2024-02-21T03:18:29;101962.53;;;8.81;72.95
71043;BME280;58696;52.134;5.500;2024-02-21T03:20:58;101961.69;;;8.80;72.97
71043;BME280;58696;52.134;5.500;2024-02-21T03:23:27;101954.97;;;8.79;72.97
71043;BME280;58696;52.134;5.500;2024-02-21T03:25:59;101955.78;;;8.80;72.96
71043;BME280;58696;52.134;5.500;2024-02-21T03:28:28;101948.22;;;8.78;72.97
71043;BME280;58696;52.134;5.500;2024-02-21T03:30:59;101939.59;;;8.79;72.96
71043;BME280;58696;52.134;5.500;2024-02-21T03:33:28;101937.81;;;8.80;72.98
71043;BME280;58696;52.134;5.500;2024-02-21T03:35:55;101938.78;;;8.79;72.97
71043;BME280;58696;52.134;5.500;2024-02-21T03:38:21;101928.69;;;8.77;72.97
71043;BME280;58696;52.134;5.500;2024-02-21T03:40:51;101921.16;;;8.76;72.97
71043;BME280;58696;52.134;5.500;2024-02-21T03:43:20;101921.94;;;8.76;72.96
71043;BME280;58696;52.134;5.500;2024-02-21T03:45:47;101919.38;;;8.76;72.97
71043;BME280;58696;52.134;5.500;2024-02-21T03:48:13;101913.56;;;8.74;72.98
71043;BME280;58696;52.134;5.500;2024-02-21T03:50:42;101909.25;;;8.75;72.97
71043;BME280;58696;52.134;5.500;2024-02-21T03:53:12;101908.44;;;8.74;72.97
71043;BME280;58696;52.134;5.500;2024-02-21T03:55:38;101916.28;;;8.73;72.97
71043;BME280;58696;52.134;5.500;2024-02-21T03:58:05;101913.72;;;8.73;72.96
71043;BME280;58696;52.134;5.500;2024-02-21T04:00:34;101915.63;;;8.71;72.98
71043;BME280;58696;52.134;5.500;2024-02-21T04:03:03;101910.63;;;8.69;72.96
71043;BME280;58696;52.134;5.500;2024-02-21T04:05:29;101909.81;;;8.68;72.97
71043;BME280;58696;52.134;5.500;2024-02-21T04:07:56;101920.09;;;8.68;72.97
71043;BME280;58696;52.134;5.500;2024-02-21T04:10:25;101914.31;;;8.66;72.96
71043;BME280;58696;52.134;5.500;2024-02-21T04:12:52;101916.06;;;8.66;72.96
71043;BME280;58696;52.134;5.500;2024-02-21T04:15:21;101919.44;;;8.66;72.95
71043;BME280;58696;52.134;5.500;2024-02-21T04:17:49;101909.31;;;8.65;72.96
71043;BME280;58696;52.134;5.500;2024-02-21T04:20:19;101905.00;;;8.65;72.96
71043;BME280;58696;52.134;5.500;2024-02-21T04:22:48;101892.31;;;8.64;72.96
71043;BME280;58696;52.134;5.500;2024-02-21T04:25:19;101892.31;;;8.64;72.96
71043;BME280;58696;52.134;5.500;2024-02-21T04:27:46;101895.84;;;8.63;72.95
71043;BME280;58696;52.134;5.500;2024-02-21T04:30:13;101884.78;;;8.62;72.97
71043;BME280;58696;52.134;5.500;2024-02-21T04:32:40;101880.63;;;8.61;72.96
71043;BME280;58696;52.134;5.500;2024-02-21T04:35:07;101879.66;;;8.62;72.96
71043;BME280;58696;52.134;5.500;2024-02-21T04:37:37;101880.63;;;8.61;72.96
71043;BME280;58696;52.134;5.500;2024-02-21T04:40:04;101878.84;;;8.62;72.97
71043;BME280;58696;52.134;5.500;2024-02-21T04:42:36;101884.78;;;8.62;72.97
71043;BME280;58696;52.134;5.500;2024-02-21T04:45:06;101880.63;;;8.61;72.96
71043;BME280;58696;52.134;5.500;2024-02-21T04:47:32;101877.09;;;8.62;72.96
71043;BME280;58696;52.134;5.500;2024-02-21T04:50:04;101871.16;;;8.62;72.96
71043;BME280;58696;52.134;5.500;2024-02-21T04:52:33;101859.16;;;8.62;72.97
71043;BME280;58696;52.134;5.500;2024-02-21T04:54:59;101864.13;;;8.64;72.96
71043;BME280;58696;52.134;5.500;2024-02-21T04:57:28;101866.69;;;8.64;72.96
71043;BME280;58696;52.134;5.500;2024-02-21T04:59:57;101858.09;;;8.65;72.96
71043;BME280;58696;52.134;5.500;2024-02-21T05:02:29;101867.53;;;8.64;72.96
71043;BME280;58696;52.134;5.500;2024-02-21T05:04:56;101855.50;;;8.65;72.96
71043;BME280;58696;52.134;5.500;2024-02-21T05:07:24;101858.09;;;8.65;72.96
71043;BME280;58696;52.134;5.500;2024-02-21T05:09:56;101859.69;;;8.66;72.96
71043;BME280;58696;52.134;5.500;2024-02-21T05:12:25;101851.19;;;8.65;72.97
71043;BME280;58696;52.134;5.500;2024-02-21T05:14:51;101858.09;;;8.65;72.97
71043;BME280;58696;52.134;5.500;2024-02-21T05:17:23;101855.63;;;8.63;72.97
71043;BME280;58696;52.134;5.500;2024-02-21T05:19:50;101848.09;;;8.62;72.97
71043;BME280;58696;52.134;5.500;2024-02-21T05:22:17;101836.91;;;8.63;72.97
71043;BME280;58696;52.134;5.500;2024-02-21T05:24:46;101832.88;;;8.60;72.96
71043;BME280;58696;52.134;5.500;2024-02-21T05:27:15;101835.56;;;8.59;72.95
71043;BME280;58696;52.134;5.500;2024-02-21T05:29:46;101832.19;;;8.58;72.96
71043;BME280;58696;52.134;5.500;2024-02-21T05:32:15;101830.59;;;8.57;72.96
71043;BME280;58696;52.134;5.500;2024-02-21T05:34:42;101829.78;;;8.57;72.96
71043;BME280;58696;52.134;5.500;2024-02-21T05:37:09;101823.88;;;8.56;72.95
71043;BME280;58696;52.134;5.500;2024-02-21T05:39:36;101817.94;;;8.56;72.96
71043;BME280;58696;52.134;5.500;2024-02-21T05:42:02;101806.09;;;8.55;72.97
71043;BME280;58696;52.134;5.500;2024-02-21T05:44:34;101803.53;;;8.55;72.97
71043;BME280;58696;52.134;5.500;2024-02-21T05:47:01;101803.53;;;8.55;72.96
71043;BME280;58696;52.134;5.500;2024-02-21T05:49:30;101801.75;;;8.55;72.96
71043;BME280;58696;52.134;5.500;2024-02-21T05:51:58;101796.63;;;8.55;72.97
71043;BME280;58696;52.134;5.500;2024-02-21T05:54:25;101787.34;;;8.54;72.96
71043;BME280;58696;52.134;5.500;2024-02-21T05:56:54;101785.88;;;8.52;72.96
71043;BME280;58696;52.134;5.500;2024-02-21T05:59:23;101780.75;;;8.52;72.96
71043;BME280;58696;52.134;5.500;2024-02-21T06:01:59;101777.53;;;8.50;72.95
71043;BME280;58696;52.134;5.500;2024-02-21T06:04:26;101774.81;;;8.51;72.96
71043;BME280;58696;52.134;5.500;2024-02-21T06:06:58;101774.16;;;8.49;72.96
71043;BME280;58696;52.134;5.500;2024-02-21T06:09:27;101772.56;;;8.48;72.96
71043;BME280;58696;52.134;5.500;2024-02-21T06:11:58;101772.69;;;8.47;72.95
71043;BME280;58696;52.134;5.500;2024-02-21T06:14:25;101770.28;;;8.45;72.95
71043;BME280;58696;52.134;5.500;2024-02-21T06:16:51;101766.91;;;8.45;72.95
71043;BME280;58696;52.134;5.500;2024-02-21T06:19:20;101755.97;;;8.42;72.94
71043;BME280;58696;52.134;5.500;2024-02-21T06:21:49;101763.66;;;8.42;72.92
71043;BME280;58696;52.134;5.500;2024-02-21T06:24:18;101771.50;;;8.41;72.92
71043;BME280;58696;52.134;5.500;2024-02-21T06:26:45;101769.25;;;8.38;72.94
71043;BME280;58696;52.134;5.500;2024-02-21T06:29:16;101774.50;;;8.36;72.94
71043;BME280;58696;52.134;5.500;2024-02-21T06:31:43;101773.00;;;8.34;72.92
71043;BME280;58696;52.134;5.500;2024-02-21T06:34:12;101774.09;;;8.31;72.94
71043;BME280;58696;52.134;5.500;2024-02-21T06:36:38;101775.03;;;8.30;72.94
71043;BME280;58696;52.134;5.500;2024-02-21T06:39:07;101781.13;;;8.29;72.92
71043;BME280;58696;52.134;5.500;2024-02-21T06:41:34;101776.94;;;8.28;72.93
71043;BME280;58696;52.134;5.500;2024-02-21T06:44:01;101773.59;;;8.28;72.94
71043;BME280;58696;52.134;5.500;2024-02-21T06:46:29;101775.34;;;8.27;72.94
71043;BME280;58696;52.134;5.500;2024-02-21T06:49:02;101774.38;;;8.28;72.94
71043;BME280;58696;52.134;5.500;2024-02-21T06:51:32;101769.25;;;8.28;72.93
71043;BME280;58696;52.134;5.500;2024-02-21T06:53:59;101770.06;;;8.29;72.93
71043;BME280;58696;52.134;5.500;2024-02-21T06:56:28;101764.94;;;8.29;72.94
71043;BME280;58696;52.134;5.500;2024-02-21T06:58:58;101764.00;;;8.30;72.94
71043;BME280;58696;52.134;5.500;2024-02-21T07:01:27;101764.53;;;8.33;72.94
71043;BME280;58696;52.134;5.500;2024-02-21T07:03:56;101763.03;;;8.31;72.93
71043;BME280;58696;52.134;5.500;2024-02-21T07:06:27;101758.69;;;8.41;72.95
71043;BME280;58696;52.134;5.500;2024-02-21T07:08:56;101753.28;;;8.44;72.96
71043;BME280;58696;52.134;5.500;2024-02-21T07:11:22;101752.72;;;8.50;72.96
71043;BME280;58696;52.134;5.500;2024-02-21T07:32:09;101735.09;;;8.65;100.00
71043;BME280;58696;52.134;5.500;2024-02-21T07:34:38;101731.03;;;8.62;81.28
71043;BME280;58696;52.134;5.500;2024-02-21T07:37:05;101733.91;;;8.59;75.21
71043;BME280;58696;52.134;5.500;2024-02-21T07:39:35;101737.41;;;8.58;73.18
71043;BME280;58696;52.134;5.500;2024-02-21T07:42:05;101722.19;;;8.57;72.94
71043;BME280;58696;52.134;5.500;2024-02-21T07:44:32;101710.97;;;8.58;72.96
71043;BME280;58696;52.134;5.500;2024-02-21T07:46:59;101706.81;;;8.57;72.91
71043;BME280;58696;52.134;5.500;2024-02-21T07:49:25;101691.44;;;8.57;72.91
71043;BME280;58696;52.134;5.500;2024-02-21T07:51:54;101691.16;;;8.60;72.93
71043;BME280;58696;52.134;5.500;2024-02-21T07:54:23;101681.72;;;8.60;72.92
71043;BME280;58696;52.134;5.500;2024-02-21T07:56:52;101680.59;;;8.63;72.93
71043;BME280;58696;52.134;5.500;2024-02-21T07:59:19;101676.28;;;8.63;72.93
71043;BME280;58696;52.134;5.500;2024-02-21T08:01:47;101676.16;;;8.65;72.95
71043;BME280;58696;52.134;5.500;2024-02-21T08:04:14;101683.69;;;8.66;72.93
71043;BME280;58696;52.134;5.500;2024-02-21T08:06:45;101684.47;;;8.67;72.93
71043;BME280;58696;52.134;5.500;2024-02-21T08:09:14;101675.19;;;8.66;72.96
71043;BME280;58696;52.134;5.500;2024-02-21T08:11:43;101678.25;;;8.69;72.97
71043;BME280;58696;52.134;5.500;2024-02-21T08:14:10;101681.31;;;8.73;72.94
71043;BME280;58696;52.134;5.500;2024-02-21T08:16:36;101674.00;;;8.78;72.95
71043;BME280;58696;52.134;5.500;2024-02-21T08:19:03;101664.38;;;8.80;72.97
71043;BME280;58696;52.134;5.500;2024-02-21T08:21:30;101652.25;;;8.82;72.97
71043;BME280;58696;52.134;5.500;2024-02-21T08:23:57;101659.63;;;8.85;72.99
71043;BME280;58696;52.134;5.500;2024-02-21T08:26:26;101662.69;;;8.89;72.99
71043;BME280;58696;52.134;5.500;2024-02-21T08:28:59;101658.53;;;8.88;72.99
71043;BME280;58696;52.134;5.500;2024-02-21T08:31:29;101656.59;;;8.90;72.98
71043;BME280;58696;52.134;5.500;2024-02-21T08:34:00;101654.84;;;8.90;72.98
71043;BME280;58696;52.134;5.500;2024-02-21T08:36:31;101645.38;;;8.91;72.98
71043;BME280;58696;52.134;5.500;2024-02-21T08:38:59;101644.31;;;8.93;72.99
71043;BME280;58696;52.134;5.500;2024-02-21T08:41:32;101647.03;;;8.92;72.99
71043;BME280;58696;52.134;5.500;2024-02-21T08:44:22;101635.66;;;8.94;72.98
71043;BME280;58696;52.134;5.500;2024-02-21T08:46:48;101633.88;;;8.95;72.99
71043;BME280;58696;52.134;5.500;2024-02-21T08:49:17;101627.16;;;8.94;72.99
71043;BME280;58696;52.134;5.500;2024-02-21T08:51:47;101620.91;;;8.96;72.99
71043;BME280;58696;52.134;5.500;2024-02-21T08:54:14;101609.56;;;8.99;72.99
71043;BME280;58696;52.134;5.500;2024-02-21T08:56:43;101614.69;;;8.99;72.98
71043;BME280;58696;52.134;5.500;2024-02-21T08:59:09;101605.25;;;9.00;72.98
71043;BME280;58696;52.134;5.500;2024-02-21T09:01:36;101607.97;;;8.98;73.00
71043;BME280;58696;52.134;5.500;2024-02-21T09:04:05;101602.66;;;9.00;72.98
71043;BME280;58696;52.134;5.500;2024-02-21T09:06:32;101614.38;;;9.02;72.99
71043;BME280;58696;52.134;5.500;2024-02-21T09:09:00;101611.34;;;9.07;72.99
71043;BME280;58696;52.134;5.500;2024-02-21T09:11:27;101603.66;;;9.07;72.99
71043;BME280;58696;52.134;5.500;2024-02-21T09:13:56;101604.81;;;9.12;72.99
71043;BME280;58696;52.134;5.500;2024-02-21T09:16:22;101603.72;;;9.15;73.00
71043;BME280;58696;52.134;5.500;2024-02-21T09:18:50;101597.16;;;9.20;73.00
71043;BME280;58696;52.134;5.500;2024-02-21T09:21:19;101593.63;;;9.21;73.00
71043;BME280;58696;52.134;5.500;2024-02-21T09:23:48;101585.94;;;9.21;73.00
71043;BME280;58696;52.134;5.500;2024-02-21T09:26:15;101588.22;;;9.25;73.01
71043;BME280;58696;52.134;5.500;2024-02-21T09:28:43;101585.78;;;9.23;73.01
71043;BME280;58696;52.134;5.500;2024-02-21T09:31:13;101579.69;;;9.24;73.00
71043;BME280;58696;52.134;5.500;2024-02-21T09:33:40;101577.97;;;9.25;73.00
71043;BME280;58696;52.134;5.500;2024-02-21T09:36:09;101569.28;;;9.26;73.01
71043;BME280;58696;52.134;5.500;2024-02-21T09:38:36;101568.97;;;9.29;73.00
71043;BME280;58696;52.134;5.500;2024-02-21T09:41:11;101558.25;;;9.25;73.01
71043;BME280;58696;52.134;5.500;2024-02-21T09:43:41;101554.38;;;9.29;73.02
71043;BME280;58696;52.134;5.500;2024-02-21T09:46:13;101541.56;;;9.29;73.00
71043;BME280;58696;52.134;5.500;2024-02-21T09:51:38;101528.25;;;9.34;73.01
71043;BME280;58696;52.134;5.500;2024-02-21T09:54:07;101524.59;;;9.36;73.03
71043;BME280;58696;52.134;5.500;2024-02-21T09:56:44;101526.38;;;9.36;73.00
71043;BME280;58696;52.134;5.500;2024-02-21T09:59:11;101520.91;;;9.31;73.01
71043;BME280;58696;52.134;5.500;2024-02-21T10:01:38;101506.31;;;9.31;73.01
71043;BME280;58696;52.134;5.500;2024-02-21T10:04:04;101492.22;;;9.35;73.02
71043;BME280;58696;52.134;5.500;2024-02-21T10:06:32;101491.09;;;9.38;73.03
71043;BME280;58696;52.134;5.500;2024-02-21T10:09:06;101493.66;;;9.38;73.02
71043;BME280;58696;52.134;5.500;2024-02-21T10:11:33;101479.53;;;9.34;73.01
71043;BME280;58696;52.134;5.500;2024-02-21T10:14:08;101479.22;;;9.37;73.02
71043;BME280;58696;52.134;5.500;2024-02-21T10:16:37;101470.72;;;9.44;73.02
71043;BME280;58696;52.134;5.500;2024-02-21T10:19:18;101462.91;;;9.46;73.01
71043;BME280;58696;52.134;5.500;2024-02-21T10:22:18;101465.13;;;9.49;73.03
71043;BME280;58696;52.134;5.500;2024-02-21T10:24:44;101453.59;;;9.53;73.02
71043;BME280;58696;52.134;5.500;2024-02-21T10:27:11;101454.72;;;9.59;73.02
71043;BME280;58696;52.134;5.500;2024-02-21T10:29:39;101441.88;;;9.67;73.02
71043;BME280;58696;52.134;5.500;2024-02-21T10:32:11;101449.25;;;9.70;73.03
71043;BME280;58696;52.134;5.500;2024-02-21T10:34:41;101420.69;;;9.73;73.03
71043;BME280;58696;52.134;5.500;2024-02-21T10:37:12;101413.00;;;9.81;73.05
71043;BME280;58696;52.134;5.500;2024-02-21T10:39:43;101422.13;;;9.84;73.05
71043;BME280;58696;52.134;5.500;2024-02-21T10:42:11;101412.03;;;9.90;73.07
71043;BME280;58696;52.134;5.500;2024-02-21T10:44:40;101421.81;;;9.95;73.07
71043;BME280;58696;52.134;5.500;2024-02-21T10:47:12;101410.09;;;9.92;73.06
71043;BME280;58696;52.134;5.500;2024-02-21T10:49:44;101391.19;;;9.85;73.05
71043;BME280;58696;52.134;5.500;2024-02-21T10:55:10;101382.22;;;9.65;73.03
71043;BME280;58696;52.134;5.500;2024-02-21T10:57:42;101380.13;;;9.68;73.04
71043;BME280;58696;52.134;5.500;2024-02-21T11:00:12;101361.81;;;9.80;73.05
71043;BME280;58696;52.134;5.500;2024-02-21T11:02:43;101355.25;;;9.85;73.04
71043;BME280;58696;52.134;5.500;2024-02-21T11:05:13;101334.56;;;9.79;73.04
71043;BME280;58696;52.134;5.500;2024-02-21T11:07:40;101306.16;;;9.80;73.06
71043;BME280;58696;52.134;5.500;2024-02-21T11:10:25;101321.06;;;9.77;73.04
71043;BME280;58696;52.134;5.500;2024-02-21T11:12:53;101317.41;;;9.71;73.05
71043;BME280;58696;52.134;5.500;2024-02-21T11:15:27;101315.00;;;9.69;73.04
71043;BME280;58696;52.134;5.500;2024-02-21T11:17:55;101340.97;;;9.74;73.05
71043;BME280;58696;52.134;5.500;2024-02-21T11:20:34;101392.16;;;9.68;73.05
71043;BME280;58696;52.134;5.500;2024-02-21T11:23:01;101378.84;;;9.56;73.04
71043;BME280;58696;52.134;5.500;2024-02-21T11:25:31;101366.03;;;9.48;73.02
71043;BME280;58696;52.134;5.500;2024-02-21T11:28:04;101372.94;;;9.47;73.02
71043;BME280;58696;52.134;5.500;2024-02-21T11:30:36;101361.22;;;9.45;73.03
71043;BME280;58696;52.134;5.500;2024-02-21T11:33:07;101356.28;;;9.35;73.00
71043;BME280;58696;52.134;5.500;2024-02-21T11:35:35;101336.38;;;9.29;72.98
71043;BME280;58696;52.134;5.500;2024-02-21T11:38:12;101346.31;;;9.32;73.01
71043;BME280;58696;52.134;5.500;2024-02-21T11:40:45;101342.63;;;9.35;73.00
71043;BME280;58696;52.134;5.500;2024-02-21T11:43:13;101340.38;;;9.32;73.02
71043;BME280;58696;52.134;5.500;2024-02-21T11:45:39;101326.28;;;9.28;73.01
71043;BME280;58696;52.134;5.500;2024-02-21T11:48:07;101315.53;;;9.24;73.02
71043;BME280;58696;52.134;5.500;2024-02-21T11:50:37;101304.63;;;9.22;73.00
71043;BME280;58696;52.134;5.500;2024-02-21T11:53:08;101306.41;;;9.21;73.02
71043;BME280;58696;52.134;5.500;2024-02-21T11:55:37;101296.31;;;9.20;73.01
71043;BME280;58696;52.134;5.500;2024-02-21T11:58:04;101287.34;;;9.16;73.00
71043;BME280;58696;52.134;5.500;2024-02-21T12:00:31;101283.97;;;9.15;73.00
71043;BME280;58696;52.134;5.500;2024-02-21T12:02:58;101267.63;;;9.16;73.00
71043;BME280;58696;52.134;5.500;2024-02-21T12:05:28;101246.13;;;9.26;73.01
71043;BME280;58696;52.134;5.500;2024-02-21T12:07:58;101238.25;;;9.43;73.02
71043;BME280;58696;52.134;5.500;2024-02-21T12:10:28;101216.69;;;9.61;73.05
71043;BME280;58696;52.134;5.500;2024-02-21T12:13:10;101207.84;;;9.71;73.04
71043;BME280;58696;52.134;5.500;2024-02-21T12:15:40;101201.88;;;9.79;73.06
71043;BME280;58696;52.134;5.500;2024-02-21T12:18:10;101185.94;;;9.92;73.06
71043;BME280;58696;52.134;5.500;2024-02-21T12:20:39;101171.63;;;9.97;73.05
71043;BME280;58696;52.134;5.500;2024-02-21T12:23:11;101179.44;;;10.04;73.07
71043;BME280;58696;52.134;5.500;2024-02-21T12:25:41;101180.19;;;10.13;73.08
71043;BME280;58696;52.134;5.500;2024-02-21T12:28:08;101169.91;;;10.13;73.08
71043;BME280;58696;52.134;5.500;2024-02-21T12:30:37;101166.38;;;10.14;73.07
71043;BME280;58696;52.134;5.500;2024-02-21T12:33:06;101150.47;;;10.18;73.08
71043;BME280;58696;52.134;5.500;2024-02-21T12:35:33;101147.25;;;10.16;73.04
71043;BME280;58696;52.134;5.500;2024-02-21T12:38:05;101144.06;;;10.14;73.06
71043;BME280;58696;52.134;5.500;2024-02-21T12:40:32;101136.88;;;10.10;73.07
71043;BME280;58696;52.134;5.500;2024-02-21T12:43:00;101122.94;;;10.04;73.07
71043;BME280;58696;52.134;5.500;2024-02-21T12:45:29;101108.97;;;10.07;73.08
71043;BME280;58696;52.134;5.500;2024-02-21T12:47:55;101104.97;;;10.04;73.08
71043;BME280;58696;52.134;5.500;2024-02-21T12:50:27;101105.63;;;10.06;73.05
71043;BME280;58696;52.134;5.500;2024-02-21T12:52:58;101086.03;;;10.05;73.08
71043;BME280;58696;52.134;5.500;2024-02-21T12:55:25;101082.50;;;10.06;73.08
71043;BME280;58696;52.134;5.500;2024-02-21T12:57:51;101079.06;;;10.14;73.06
71043;BME280;58696;52.134;5.500;2024-02-21T13:00:18;101065.44;;;10.13;73.08
71043;BME280;58696;52.134;5.500;2024-02-21T13:02:47;101048.84;;;10.16;73.08
71043;BME280;58696;52.134;5.500;2024-02-21T13:05:16;101043.28;;;10.12;73.09
71043;BME280;58696;52.134;5.500;2024-02-21T13:07:45;101046.00;;;10.11;73.08
71043;BME280;58696;52.134;5.500;2024-02-21T13:10:12;101035.75;;;10.11;73.08
71043;BME280;58696;52.134;5.500;2024-02-21T13:12:41;101021.25;;;10.18;73.09
71043;BME280;58696;52.134;5.500;2024-02-21T13:15:10;101017.88;;;10.17;73.08
71043;BME280;58696;52.134;5.500;2024-02-21T13:17:39;101012.69;;;10.25;73.09
71043;BME280;58696;52.134;5.500;2024-02-21T13:20:09;101005.88;;;10.33;73.10
71043;BME280;58696;52.134;5.500;2024-02-21T13:22:43;101011.38;;;10.30;73.10
71043;BME280;58696;52.134;5.500;2024-02-21T13:25:10;101004.81;;;10.27;73.09
71043;BME280;58696;52.134;5.500;2024-02-21T13:27:37;101004.69;;;10.20;73.09
71043;BME280;58696;52.134;5.500;2024-02-21T13:30:06;101002.34;;;10.11;73.08
71043;BME280;58696;52.134;5.500;2024-02-21T13:32:35;100995.00;;;10.08;73.08